Latest Weather Observations for Bendigo

IDV60801

Issued at 6:35 pm EDT Sunday 26 October 2014 (issued every 30 minutes, with the page automatically refreshed every 10 minutes)

About weather observations | Map of weather stations | Latest weather observations for VIC | Other Formats
Station Details ID: 081123 Name: BENDIGO AIRPORT Lat: -36.74 Lon: 144.33 Height: 208.0 m
Data from the previous 72 hours. | See also: Recent months at Bendigo
Date/Time
EDT
Temp
°C
App
Temp
°C
Dew
Point
Rel
Hum
%
Delta-T
°C
Wind Press
QNH
hPa
Press
MSL
hPa
Rain
since 9 am
mm
Dir
 
Spd
km/h
Gust
km/h
Spd
kts
Gust
kts
26/06:30pm 25.4 21.0 2.8 23 11.1 N 15 20 8 11 1009.8 1009.7 0.0
26/06:00pm 25.7 21.2 2.4 22 11.4 N 15 20 8 11 1010.0 1009.9 0.0
26/05:30pm 26.2 21.8 2.8 22 11.5 N 15 24 8 13 1010.0 1009.9 0.0
26/05:00pm 26.2 22.6 2.8 22 11.6 NW 11 20 6 11 1010.3 1010.2 0.0
26/04:30pm 26.2 24.5 4.1 24 11.2 NE 2 11 1 6 1010.2 1010.1 0.0
26/04:00pm 26.5 24.2 4.9 25 11.1 WSW 6 11 3 6 1010.5 1010.4 0.0
26/03:30pm 26.4 24.0 5.4 26 10.9 WSW 7 15 4 8 1010.8 1010.7 0.0
26/03:00pm 25.0 21.6 5.7 29 10.0 W 13 20 7 11 1011.7 1011.7 0.0
26/02:30pm 24.6 20.2 4.9 28 10.0 W 17 24 9 13 1012.2 1012.1 0.0
26/02:00pm 24.6 20.2 4.9 28 10.0 W 17 24 9 13 1012.4 1012.3 0.0
26/01:30pm 25.2 21.1 4.3 26 10.5 WNW 15 26 8 14 1012.5 1012.4 0.0
26/01:00pm 24.6 19.9 5.9 30 9.7 WNW 20 28 11 15 1012.8 1012.7 0.0
26/12:30pm 23.5 20.8 7.2 35 8.6 NNW 11 17 6 9 1012.2 1012.1 0.0
26/12:00pm 24.1 23.2 7.7 35 8.7 NW 2 9 1 5 1012.4 1012.3 0.0
26/11:30am 22.6 20.8 7.2 37 8.0 WNW 6 13 3 7 1012.8 1012.7 0.0
26/11:00am 20.9 20.2 8.5 45 6.6 NNW 2 11 1 6 1012.7 1012.6 0.0
26/10:30am 20.1 19.6 9.4 50 5.7 SSW 2 7 1 4 1012.9 1012.8 0.0
26/10:00am 18.3 17.1 9.6 57 4.6 S 6 11 3 6 1013.3 1013.2 0.0
26/09:30am 16.4 15.1 9.1 62 3.8 SE 6 9 3 5 1012.8 1012.7 0.0
26/09:00am 15.4 13.5 9.1 66 3.3 SE 9 13 5 7 1012.7 1012.6 0.0
26/08:30am 13.6 11.0 9.3 75 2.2 S 13 17 7 9 1012.8 1012.7 0.0
26/08:00am 11.6 9.4 9.2 85 1.2 S 11 17 6 9 1012.9 1012.8 0.0
26/07:30am 9.9 7.5 8.8 93 0.5 SSE 11 13 6 7 1012.6 1012.5 0.0
26/07:00am 8.6 6.4 8.0 96 0.3 S 9 11 5 6 1012.3 1012.2 0.0
26/06:30am 7.5 6.8 6.9 96 0.3 SSE 0 0 0 0 1012.3 1012.2 0.0
26/06:00am 7.4 6.7 6.8 96 0.3 SSE 0 0 0 0 1012.2 1012.1 0.0
26/05:30am 7.7 7.0 7.1 96 0.3 CALM 0 0 0 0 1011.9 1011.8 0.0
26/05:00am 8.2 7.6 7.4 95 0.4 CALM 0 0 0 0 1011.7 1011.7 0.0
26/04:30am 8.4 7.8 7.3 93 0.5 CALM 0 0 0 0 1011.6 1011.6 0.0
26/04:00am 9.5 9.0 7.9 90 0.8 CALM 0 0 0 0 1011.6 1011.6 0.0
26/03:30am 10.2 8.2 8.5 89 0.8 S 9 13 5 7 1011.5 1011.4 0.0
26/03:00am 10.7 8.8 9.0 89 0.9 SSE 9 13 5 7 1011.6 1011.6 0.0
26/02:30am 11.0 8.7 9.1 88 1.0 SSE 11 17 6 9 1012.1 1012.0 0.0
26/02:00am 11.6 9.4 9.3 86 1.2 SE 11 15 6 8 1012.5 1012.4 0.0
26/01:30am 11.8 9.6 9.2 84 1.3 SSE 11 15 6 8 1012.6 1012.5 0.0
26/01:00am 12.3 9.7 9.5 83 1.4 SSE 13 19 7 10 1013.0 1012.9 0.0
26/12:30am 12.7 10.5 9.5 81 1.6 SSE 11 17 6 9 1013.3 1013.2 0.0
26/12:00am 13.2 10.3 9.8 80 1.8 SSE 15 20 8 11 1013.5 1013.4 0.0
 
Date/Time
EDT
Temp
°C
App
Temp
°C
Dew
Point
Rel
Hum
%
Delta-T
°C
Wind Press
QNH
hPa
Press
MSL
hPa
Rain
since 9 am
mm
Dir
 
Spd
km/h
Gust
km/h
Spd
kts
Gust
kts
25/11:30pm 13.5 9.9 9.7 78 2.0 SSE 19 24 10 13 1013.7 1013.6 0.0
25/11:00pm 14.3 10.8 10.1 76 2.2 SSE 19 28 10 15 1013.7 1013.6 0.0
25/10:30pm 14.9 11.2 10.1 73 2.5 SSE 20 30 11 16 1013.8 1013.7 0.0
25/10:00pm 15.8 12.1 10.3 70 2.9 SSE 20 26 11 14 1013.7 1013.6 0.0
25/09:30pm 17.2 13.9 10.8 66 3.5 SSE 19 26 10 14 1013.4 1013.3 0.0
25/09:00pm 19.1 16.4 11.7 62 4.1 SSE 17 26 9 14 1013.1 1013.0 0.0
25/08:30pm 20.5 17.5 12.0 58 4.8 SSE 19 26 10 14 1012.6 1012.5 0.0
25/08:00pm 22.4 19.2 13.2 56 5.3 S 22 30 12 16 1012.2 1012.1 0.0
25/07:30pm 24.4 21.5 13.0 49 6.7 SE 20 24 11 13 1011.6 1011.6 0.0
25/07:00pm 26.4 23.2 8.4 32 9.8 S 15 24 8 13 1011.1 1011.0 0.0
25/06:30pm 28.0 25.8 7.8 28 11.0 SSW 9 13 5 7 1011.2 1011.1 0.0
25/06:00pm 28.1 24.6 7.4 27 11.2 WSW 15 20 8 11 1011.1 1011.0 0.0
25/05:30pm 28.1 24.0 7.9 28 11.0 SW 19 26 10 14 1011.1 1011.0 0.0
25/05:00pm 28.4 24.2 8.1 28 11.1 WSW 20 26 11 14 1011.0 1010.9 0.0
25/04:30pm 29.1 26.0 7.1 25 11.9 WSW 13 20 7 11 1011.1 1011.0 0.0
25/04:00pm 30.2 27.2 6.1 22 12.9 WNW 11 20 6 11 1011.3 1011.2 0.0
25/03:30pm 29.4 26.9 6.7 24 12.2 W 9 20 5 11 1011.5 1011.4 0.0
25/03:00pm 28.7 27.5 9.4 30 10.8 NW 6 11 3 6 1012.1 1012.0 0.0
25/02:30pm 28.4 27.9 9.2 30 10.7 NNE 2 9 1 5 1012.7 1012.6 0.0
25/02:00pm 27.3 26.8 9.2 32 10.1 SE 2 6 1 3 1013.2 1013.1 0.0
25/01:30pm 27.1 25.4 8.5 31 10.2 NNE 7 15 4 8 1013.6 1013.5 0.0
25/01:00pm 27.3 26.5 9.6 33 9.9 NNE 4 15 2 8 1014.0 1013.9 0.0
25/12:30pm 26.1 26.0 9.4 35 9.3 CALM 0 7 0 4 1014.5 1014.4 0.0
25/12:00pm 25.9 25.7 10.5 38 8.7 NW 2 9 1 5 1015.0 1014.9 0.0
25/11:30am 24.3 23.3 10.9 43 7.5 ESE 7 15 4 8 1015.1 1015.0 0.0
25/11:00am 23.0 22.0 10.4 45 7.0 SSW 6 11 3 6 1015.3 1015.2 0.0
25/10:30am 21.8 20.3 10.6 49 6.2 E 9 13 5 7 1015.4 1015.3 0.0
25/10:00am 20.3 19.1 11.5 57 4.9 SE 9 15 5 8 1015.3 1015.2 0.0
25/09:30am 18.6 16.1 11.2 62 4.1 SSE 15 22 8 12 1015.5 1015.4 0.0
25/09:00am 17.5 15.4 11.1 66 3.5 SE 13 17 7 9 1015.6 1015.5 0.0
25/08:30am 15.8 13.4 11.4 75 2.4 SE 15 20 8 11 1015.7 1015.7 0.0
25/08:00am 15.2 12.4 11.4 78 2.1 SE 17 24 9 13 1015.4 1015.3 0.0
25/07:30am 14.2 12.3 11.7 85 1.4 SE 13 20 7 11 1015.6 1015.5 0.0
25/07:00am 13.4 12.2 11.5 88 1.0 SE 9 13 5 7 1015.4 1015.3 0.0
25/06:30am 13.3 11.7 11.5 89 1.0 SE 11 17 6 9 1015.0 1014.9 0.0
25/06:00am 13.7 11.0 11.7 88 1.1 SSE 17 22 9 12 1014.8 1014.7 0.0
25/05:30am 13.7 10.5 11.9 89 1.0 SSE 20 28 11 15 1014.4 1014.3 0.0
25/05:00am 13.8 11.5 11.8 88 1.1 SSE 15 20 8 11 1014.4 1014.3 0.0
25/04:30am 14.0 11.9 11.3 84 1.4 SSE 13 17 7 9 1014.2 1014.1 0.0
25/04:00am 12.2 10.8 9.6 84 1.3 S 7 11 4 6 1014.2 1014.1 0.0
25/03:30am 11.7 11.1 7.2 74 2.2 CALM 0 0 0 0 1014.0 1013.9 0.0
25/03:00am 12.6 12.0 7.5 71 2.5 CALM 0 0 0 0 1014.2 1014.1 0.0
25/02:30am 12.6 12.0 7.3 70 2.6 CALM 0 0 0 0 1014.3 1014.2 0.0
25/02:00am 13.2 12.5 7.0 66 3.0 CALM 0 0 0 0 1014.4 1014.3 0.0
25/01:30am 15.6 15.3 8.8 64 3.5 CALM 0 0 0 0 1014.5 1014.4 0.0
25/01:00am 14.2 13.6 7.3 63 3.4 CALM 0 0 0 0 1014.5 1014.4 0.0
25/12:30am 15.4 14.8 7.2 58 4.1 CALM 0 0 0 0 1014.5 1014.4 0.0
25/12:00am 18.1 16.4 8.4 53 5.0 SW 7 9 4 5 1014.4 1014.3 0.0
 
Date/Time
EDT
Temp
°C
App
Temp
°C
Dew
Point
Rel
Hum
%
Delta-T
°C
Wind Press
QNH
hPa
Press
MSL
hPa
Rain
since 9 am
mm
Dir
 
Spd
km/h
Gust
km/h
Spd
kts
Gust
kts
24/11:30pm 18.9 16.6 7.4 47 5.9 SW 9 11 5 6 1014.5 1014.4 0.0
24/11:00pm 20.3 17.9 5.1 37 7.5 SW 7 9 4 5 1014.4 1014.3 0.0
24/10:30pm 22.2 18.8 3.8 30 9.0 WSW 11 15 6 8 1014.2 1014.1 0.0
24/10:18pm 22.0 19.4 4.1 31 8.8 SW 7 9 4 5 1014.1 1014.0 0.0
24/10:00pm 17.0 15.0 6.2 49 5.3 WSW 6 9 3 5 1013.9 1013.8 0.0
24/09:30pm 18.3 17.3 5.8 44 6.2 CALM 0 0 0 0 1013.5 1013.4 0.0
24/09:00pm 19.2 18.1 4.9 39 7.0 CALM 0 0 0 0 1013.1 1013.0 0.0
24/08:30pm 21.7 20.6 5.2 34 8.3 CALM 0 0 0 0 1012.7 1012.6 0.0
24/08:00pm 25.8 23.0 3.1 23 11.2 WNW 7 9 4 5 1012.4 1012.3 0.0
24/07:30pm 27.7 26.1 2.7 20 12.4 CALM 0 0 0 0 1011.7 1011.7 0.0
24/07:00pm 29.1 24.5 1.6 17 13.6 W 15 22 8 12 1011.6 1011.6 0.0
24/06:30pm 30.4 25.1 1.8 16 14.3 W 19 26 10 14 1011.4 1011.3 0.0
24/06:00pm 30.6 25.3 1.9 16 14.4 NW 19 22 10 12 1011.1 1011.0 0.0
24/05:30pm 30.8 25.0 0.2 14 14.9 WSW 20 26 11 14 1010.8 1010.7 0.0
24/05:00pm 31.1 26.5 1.4 15 14.8 WNW 15 22 8 12 1010.8 1010.7 0.0
24/04:30pm 30.8 25.4 1.2 15 14.6 WNW 19 32 10 17 1011.0 1010.9 0.0
24/04:00pm 30.3 24.8 0.8 15 14.5 WNW 19 30 10 16 1011.1 1011.0 0.0
24/03:30pm 29.6 23.1 0.2 15 14.2 W 24 35 13 19 1011.4 1011.3 0.0
24/03:00pm 29.3 24.5 4.7 21 12.8 WNW 19 24 10 13 1011.5 1011.4 0.0
24/02:30pm 30.3 25.7 5.6 21 13.1 WNW 19 32 10 17 1011.7 1011.7 0.0
24/02:00pm 29.0 24.8 8.1 27 11.5 N 20 26 11 14 1011.9 1011.8 0.0
24/01:30pm 28.1 23.8 7.9 28 11.0 WNW 20 35 11 19 1012.2 1012.1 0.0
24/01:00pm 28.1 25.1 10.8 34 9.9 WNW 17 26 9 14 1012.3 1012.2 0.0
24/12:30pm 25.9 23.7 13.4 46 7.4 W 17 26 9 14 1012.7 1012.6 0.0
24/12:00pm 25.3 23.1 13.2 47 7.1 WNW 17 26 9 14 1012.8 1012.7 0.0
24/11:30am 25.3 23.4 14.1 50 6.7 WNW 17 22 9 12 1013.0 1012.9 0.0
24/11:00am 25.0 24.3 14.2 51 6.5 W 11 17 6 9 1013.1 1013.0 0.0
24/10:30am 23.4 22.4 13.3 53 5.9 W 11 17 6 9 1013.0 1012.9 0.0
24/10:00am 22.4 22.6 13.2 56 5.3 WNW 4 11 2 6 1013.1 1013.0 0.0
24/09:30am 21.5 22.4 12.9 58 4.9 CALM 0 7 0 4 1012.7 1012.6 0.0
24/09:00am 20.9 20.6 12.8 60 4.6 ESE 6 11 3 6 1012.6 1012.5 0.0
24/08:30am 20.1 19.1 12.3 61 4.4 ESE 9 15 5 8 1012.6 1012.5 0.0
24/08:00am 18.8 18.0 13.0 69 3.3 SSE 9 13 5 7 1012.5 1012.4 0.0
24/07:30am 17.3 16.5 13.0 76 2.4 SSE 9 13 5 7 1012.6 1012.5 0.0
24/07:00am 14.7 14.9 12.0 84 1.5 SE 2 7 1 4 1012.5 1012.4 0.0
24/06:30am 15.6 14.6 12.2 80 1.9 SSE 9 13 5 7 1012.0 1011.9 0.0
24/06:00am 14.6 13.8 11.6 82 1.6 SE 7 9 4 5 1011.9 1011.8 0.0
24/05:30am 16.1 14.7 12.3 78 2.1 SSE 11 13 6 7 1011.9 1011.8 0.0
24/05:00am 16.8 15.2 12.7 77 2.3 SSE 13 20 7 11 1011.2 1011.1 0.0
24/04:30am 16.9 14.6 13.0 78 2.2 SSE 17 20 9 11 1011.1 1011.0 0.0
24/04:00am 16.8 14.9 12.9 78 2.2 SSE 15 19 8 10 1011.1 1011.0 0.0
24/03:30am 17.0 15.1 12.9 77 2.3 SSE 15 20 8 11 1011.3 1011.2 0.0
24/03:00am 17.0 15.8 12.9 77 2.3 SSE 11 17 6 9 1011.6 1011.6 0.0
24/02:30am 17.5 16.4 13.0 75 2.5 SSE 11 15 6 8 1011.7 1011.7 0.0
24/02:00am 18.1 16.6 13.2 73 2.8 SSE 13 19 7 10 1012.1 1012.0 0.0
24/01:30am 17.5 15.1 12.8 74 2.6 SSE 17 20 9 11 1012.6 1012.5 0.0
24/01:00am 17.8 15.5 12.9 73 2.8 SSE 17 20 9 11 1013.0 1012.9 0.0
24/12:30am 17.8 14.9 12.9 73 2.8 SSE 20 26 11 14 1013.0 1012.9 0.0
24/12:00am 17.7 14.4 12.8 73 2.8 SSE 22 26 12 14 1013.2 1013.1 0.0
 
Date/Time
EDT
Temp
°C
App
Temp
°C
Dew
Point
Rel
Hum
%
Delta-T
°C
Wind Press
QNH
hPa
Press
MSL
hPa
Rain
since 9 am
mm
Dir
 
Spd
km/h
Gust
km/h
Spd
kts
Gust
kts
23/11:30pm 17.8 14.5 12.9 73 2.8 SSE 22 28 12 15 1013.5 1013.4 0.0
23/11:00pm 17.8 14.9 12.9 73 2.8 SSE 20 26 11 14 1013.5 1013.4 0.0
23/10:30pm 17.7 14.0 12.8 73 2.8 SSE 24 32 13 17 1013.4 1013.3 0.0
23/10:00pm 17.9 14.5 12.6 71 3.0 SSE 22 30 12 16 1013.4 1013.3 0.0
23/09:30pm 18.4 14.7 12.8 70 3.2 SSE 24 32 13 17 1013.3 1013.2 0.0
23/09:00pm 19.0 15.4 13.0 68 3.4 SSE 24 32 13 17 1013.1 1013.0 0.0
23/08:30pm 20.1 17.1 13.8 67 3.7 SSE 22 32 12 17 1012.8 1012.7 0.0
23/08:00pm 22.0 19.3 14.6 63 4.4 SSE 22 28 12 15 1012.7 1012.6 0.0
23/07:30pm 24.6 22.9 14.7 54 6.0 SSE 17 26 9 14 1012.4 1012.3 0.0
23/07:00pm 26.6 24.8 14.4 47 7.4 SE 17 22 9 12 1012.1 1012.0 0.0

Other Formats:

Comma delimited format used in spreadsheet applications
http://www.bom.gov.au/fwo/IDV60801/IDV60801.94855.axf

JavaScript Object Notation format (JSON) in row-major order
http://www.bom.gov.au/fwo/IDV60801/IDV60801.94855.json